Time;durP1;ratioP1;P1;durP2;ratioP2;P2;SDS_P1;SDS_P2;PMS_P1;PMS_P2;Temp;Humidity;BMP_temperature;BMP_pressure;BME280_temperature;BME280_humidity;BME280_pressure;Samples;Min_cycle;Max_cycle;Signal;HPM_P1;HPM_P2
2022/05/11 00:00:45;;;;;;;3.20;2.73;;;16.00;94.20;;;;;;5036137;28;22396;-85
2022/05/11 00:03:13;;;;;;;3.80;2.87;;;16.00;94.40;;;;;;5028166;28;20677;-86
2022/05/11 00:05:40;;;;;;;4.50;3.63;;;15.90;94.60;;;;;;5033004;28;20625;-85
2022/05/11 00:08:08;;;;;;;3.40;3.10;;;15.90;94.90;;;;;;5029967;28;20684;-85
2022/05/11 00:10:37;;;;;;;3.23;2.93;;;15.80;94.50;;;;;;5034142;28;21219;-86
2022/05/11 00:13:06;;;;;;;3.57;3.27;;;15.90;94.50;;;;;;5034133;28;20627;-86
2022/05/11 00:15:34;;;;;;;4.70;4.30;;;15.80;94.40;;;;;;5036626;28;20677;-85
2022/05/11 00:18:02;;;;;;;2.10;1.90;;;15.80;94.90;;;;;;5028273;28;20623;-86
2022/05/11 00:20:30;;;;;;;3.33;3.03;;;15.80;94.80;;;;;;5034171;28;20612;-86
2022/05/11 00:23:00;;;;;;;6.30;2.77;;;15.80;94.10;;;;;;5032548;28;20712;-85
2022/05/11 00:25:30;;;;;;;3.80;3.07;;;15.80;94.30;;;;;;5035797;28;20630;-86
2022/05/11 00:27:59;;;;;;;3.27;2.80;;;15.80;94.30;;;;;;5029030;28;20619;-84
2022/05/11 00:30:29;;;;;;;2.30;2.10;;;15.80;94.20;;;;;;5035230;28;20669;-84
2022/05/11 00:32:59;;;;;;;3.67;3.37;;;15.70;94.20;;;;;;5032688;28;21047;-85
2022/05/11 00:35:28;;;;;;;3.43;2.83;;;15.70;94.50;;;;;;5027985;28;21935;-86
2022/05/11 00:37:57;;;;;;;4.00;3.37;;;15.60;94.50;;;;;;5034754;28;21015;-86
2022/05/11 00:40:25;;;;;;;4.27;3.20;;;15.50;94.50;;;;;;5032810;28;20653;-87
2022/05/11 00:42:54;;;;;;;2.03;1.83;;;15.40;94.80;;;;;;5029855;28;20615;-85
2022/05/11 00:45:21;;;;;;;6.47;3.40;;;15.40;95.10;;;;;;5029376;28;20649;-85
2022/05/11 00:47:52;;;;;;;5.77;2.70;;;15.40;95.10;;;;;;5032393;28;20615;-86
2022/05/11 00:50:21;;;;;;;3.20;2.67;;;15.40;95.40;;;;;;5035122;28;21129;-84
2022/05/11 00:52:53;;;;;;;2.50;2.27;;;15.40;95.20;;;;;;5034506;28;20624;-85
2022/05/11 00:55:24;;;;;;;4.20;2.50;;;15.40;95.30;;;;;;5033475;28;20757;-85
2022/05/11 00:57:56;;;;;;;3.37;3.07;;;15.30;95.20;;;;;;5027915;28;21076;-84
2022/05/11 01:00:25;;;;;;;2.93;2.50;;;15.40;95.00;;;;;;5028800;28;20641;-85
2022/05/11 01:02:54;;;;;;;2.60;2.40;;;15.40;94.70;;;;;;5027231;28;20654;-85
2022/05/11 01:05:22;;;;;;;3.30;2.73;;;15.30;95.10;;;;;;5033043;28;20612;-85
2022/05/11 01:07:49;;;;;;;2.23;2.00;;;15.30;95.30;;;;;;5027628;28;20635;-85
2022/05/11 01:10:16;;;;;;;2.87;2.67;;;15.40;95.20;;;;;;5027164;28;20662;-85
2022/05/11 01:12:48;;;;;;;2.70;2.20;;;15.30;95.30;;;;;;5035642;28;20684;-85
2022/05/11 01:15:22;;;;;;;2.27;2.00;;;15.40;95.40;;;;;;5025139;28;20700;-85
2022/05/11 01:17:49;;;;;;;2.67;2.43;;;15.30;95.60;;;;;;5028132;28;20714;-85
2022/05/11 01:20:20;;;;;;;2.90;2.67;;;15.20;95.60;;;;;;5032864;28;20614;-86
2022/05/11 01:22:54;;;;;;;1.90;1.80;;;15.30;95.60;;;;;;5034868;28;20624;-86
2022/05/11 01:25:24;;;;;;;4.50;3.30;;;15.20;95.40;;;;;;5034965;28;20639;-85
2022/05/11 01:28:02;;;;;;;4.40;2.57;;;15.30;94.90;;;;;;5034979;28;20717;-85
2022/05/11 01:30:30;;;;;;;2.93;2.40;;;15.30;95.30;;;;;;5035595;28;20638;-85
2022/05/11 01:32:58;;;;;;;2.50;1.83;;;15.30;95.10;;;;;;5034573;28;20730;-85
2022/05/11 01:35:44;;;;;;;3.07;2.70;;;15.30;95.10;;;;;;5037974;28;20654;-86
2022/05/11 01:38:27;;;;;;;2.03;1.93;;;15.20;95.10;;;;;;5029781;28;20630;-85
2022/05/11 01:40:56;;;;;;;4.00;2.50;;;15.20;94.90;;;;;;5031786;28;21034;-85
2022/05/11 01:43:25;;;;;;;4.90;3.43;;;15.20;94.80;;;;;;5027673;28;21134;-85
2022/05/11 01:45:52;;;;;;;3.80;3.20;;;15.30;94.80;;;;;;5033472;28;21460;-85
2022/05/11 01:48:20;;;;;;;2.47;2.10;;;15.20;95.00;;;;;;5034605;28;20622;-85
2022/05/11 01:50:47;;;;;;;3.70;3.03;;;15.20;95.10;;;;;;5027089;28;20638;-85
2022/05/11 01:53:15;;;;;;;4.23;2.93;;;15.20;95.30;;;;;;5034804;28;20688;-85
2022/05/11 01:55:42;;;;;;;2.93;2.70;;;15.10;95.50;;;;;;5036832;28;20665;-86
2022/05/11 01:58:12;;;;;;;3.03;2.80;;;15.10;95.60;;;;;;5032566;28;20722;-85
2022/05/11 02:00:40;;;;;;;4.33;3.47;;;15.00;95.60;;;;;;5036231;28;20704;-85
2022/05/11 02:03:07;;;;;;;3.30;3.00;;;15.00;95.70;;;;;;5032781;28;20655;-85
2022/05/11 02:08:19;;;;;;;3.37;2.70;;;15.00;95.40;;;;;;5033099;28;20626;-85
2022/05/11 02:10:47;;;;;;;2.83;2.60;;;15.00;95.60;;;;;;5035798;28;20679;-85
2022/05/11 02:13:15;;;;;;;3.57;2.70;;;15.10;95.40;;;;;;5040358;28;20672;-85
2022/05/11 02:15:42;;;;;;;2.40;1.83;;;15.00;95.70;;;;;;5034575;28;21082;-84
2022/05/11 02:18:09;;;;;;;4.23;3.20;;;14.90;95.90;;;;;;5035330;28;21051;-85
2022/05/11 02:20:36;;;;;;;3.30;2.83;;;15.00;95.90;;;;;;5036553;28;20725;-85
2022/05/11 02:23:04;;;;;;;2.50;2.30;;;14.90;96.10;;;;;;5032036;28;20718;-86
2022/05/11 02:25:31;;;;;;;4.00;2.87;;;14.90;96.20;;;;;;5035539;28;20612;-84
2022/05/11 02:27:58;;;;;;;2.90;2.23;;;14.90;96.30;;;;;;5031416;28;20654;-86
2022/05/11 02:30:28;;;;;;;2.67;2.43;;;14.90;96.30;;;;;;5035790;28;21334;-85
2022/05/11 02:32:56;;;;;;;3.13;2.83;;;14.90;96.10;;;;;;5030284;28;20617;-85
2022/05/11 02:35:24;;;;;;;4.73;3.33;;;14.90;95.90;;;;;;5037418;28;21066;-85
2022/05/11 02:37:54;;;;;;;2.40;2.00;;;15.00;95.80;;;;;;5036854;28;20721;-85
2022/05/11 02:40:23;;;;;;;3.00;2.57;;;15.00;95.60;;;;;;5029238;28;20633;-85
2022/05/11 02:42:51;;;;;;;3.33;2.43;;;15.00;95.50;;;;;;5031119;28;21093;-85
2022/05/11 02:45:18;;;;;;;3.10;2.90;;;15.00;95.60;;;;;;5037281;28;20633;-85
2022/05/11 02:47:48;;;;;;;3.30;3.00;;;15.10;95.60;;;;;;5028451;28;21324;-85
2022/05/11 02:50:22;;;;;;;3.83;2.90;;;15.00;95.60;;;;;;5037640;28;20630;-85
2022/05/11 02:52:49;;;;;;;2.87;2.60;;;15.00;95.70;;;;;;5028880;28;20621;-84
2022/05/11 02:55:16;;;;;;;4.53;3.53;;;15.00;95.60;;;;;;5029490;28;20705;-85
2022/05/11 02:57:43;;;;;;;2.17;1.97;;;15.00;95.70;;;;;;5029503;28;20711;-85
2022/05/11 03:00:16;;;;;;;3.37;2.90;;;15.00;96.00;;;;;;5038657;28;20647;-85
2022/05/11 03:02:43;;;;;;;4.57;2.90;;;15.00;95.80;;;;;;5030110;28;20651;-86
2022/05/11 03:05:12;;;;;;;3.37;2.70;;;15.00;96.00;;;;;;5032921;28;22452;-86
2022/05/11 03:07:40;;;;;;;4.93;2.87;;;15.00;95.70;;;;;;5034504;28;20677;-85
2022/05/11 03:10:09;;;;;;;3.50;3.20;;;15.00;95.90;;;;;;5034569;28;20684;-85
2022/05/11 03:12:36;;;;;;;2.40;2.03;;;15.00;95.90;;;;;;5037661;28;20709;-85
2022/05/11 03:15:05;;;;;;;4.57;3.17;;;14.90;96.10;;;;;;5034286;28;20749;-86
2022/05/11 03:17:32;;;;;;;2.60;2.40;;;14.90;96.00;;;;;;5036509;28;20634;-85
2022/05/11 03:19:59;;;;;;;3.20;2.90;;;14.90;96.10;;;;;;5029939;28;20612;-85
2022/05/11 03:22:28;;;;;;;3.27;2.97;;;14.90;96.20;;;;;;5032160;28;20679;-85
2022/05/11 03:24:54;;;;;;;3.50;2.73;;;14.90;96.00;;;;;;5034901;28;20717;-85
2022/05/11 03:27:21;;;;;;;8.23;2.50;;;14.90;96.20;;;;;;5034379;28;21218;-84
2022/05/11 03:29:49;;;;;;;2.60;2.40;;;14.80;96.10;;;;;;5034961;28;20697;-85
2022/05/11 03:35:00;;;;;;;4.00;2.80;;;14.80;96.30;;;;;;5032177;28;20710;-84
2022/05/11 03:37:29;;;;;;;4.17;3.50;;;14.80;96.00;;;;;;5036979;28;20728;-85
2022/05/11 03:39:56;;;;;;;3.10;2.90;;;14.80;96.00;;;;;;5030579;28;20635;-84
2022/05/11 03:42:28;;;;;;;2.97;2.57;;;14.80;95.90;;;;;;5028780;28;20726;-85
2022/05/11 03:44:55;;;;;;;3.80;3.47;;;14.80;95.90;;;;;;5040516;28;20697;-85
2022/05/11 03:47:22;;;;;;;2.97;2.70;;;14.90;95.90;;;;;;5030095;28;20634;-85
2022/05/11 03:49:49;;;;;;;3.50;2.73;;;14.90;95.90;;;;;;5028870;28;21157;-85
2022/05/11 03:52:18;;;;;;;4.40;3.33;;;14.90;95.80;;;;;;5025658;28;21258;-85
2022/05/11 03:54:46;;;;;;;3.07;2.77;;;14.90;95.80;;;;;;5029888;28;20766;-85
2022/05/11 03:57:13;;;;;;;3.07;2.77;;;14.90;95.90;;;;;;5028623;28;20663;-85
2022/05/11 03:59:40;;;;;;;2.43;2.23;;;14.80;95.90;;;;;;5037222;28;20750;-84
2022/05/11 04:02:07;;;;;;;2.60;2.40;;;14.80;95.80;;;;;;5031599;28;20620;-84
2022/05/11 04:04:34;;;;;;;2.80;1.90;;;14.80;95.70;;;;;;5035554;28;20668;-85
2022/05/11 04:07:01;;;;;;;2.80;2.60;;;14.80;95.80;;;;;;5031752;28;21036;-85
2022/05/11 04:09:28;;;;;;;2.37;2.10;;;14.80;95.70;;;;;;5027881;28;20634;-85
2022/05/11 04:11:57;;;;;;;2.90;2.43;;;14.80;95.50;;;;;;5033381;28;21236;-85
2022/05/11 04:14:24;;;;;;;2.43;2.23;;;14.70;95.50;;;;;;5032029;28;20654;-84
2022/05/11 04:16:56;;;;;;;2.37;2.17;;;14.80;95.60;;;;;;5028300;28;20858;-85
2022/05/11 04:19:23;;;;;;;1.90;1.80;;;14.80;95.70;;;;;;5036504;28;20631;-85
2022/05/11 04:21:50;;;;;;;2.60;2.40;;;14.80;95.60;;;;;;5029993;28;20611;-85
2022/05/11 04:24:16;;;;;;;3.23;2.20;;;14.80;95.70;;;;;;5035281;28;21342;-84
2022/05/11 04:26:43;;;;;;;2.90;2.60;;;14.80;95.50;;;;;;5032745;28;20629;-85
2022/05/11 04:29:12;;;;;;;3.20;2.50;;;14.80;95.50;;;;;;5034199;28;20715;-85
2022/05/11 04:31:38;;;;;;;2.90;2.70;;;14.80;95.50;;;;;;5030101;28;20641;-86
2022/05/11 04:34:05;;;;;;;3.10;2.43;;;14.90;95.80;;;;;;5030976;28;20717;-85
2022/05/11 04:36:32;;;;;;;5.17;3.60;;;14.90;95.30;;;;;;5030484;28;20655;-87
2022/05/11 04:38:59;;;;;;;3.80;3.50;;;14.90;95.30;;;;;;5035528;28;20637;-85
2022/05/11 04:41:26;;;;;;;2.67;2.47;;;15.00;95.20;;;;;;5031820;28;21143;-86
2022/05/11 04:43:53;;;;;;;3.77;2.63;;;14.90;95.40;;;;;;5037818;28;20751;-86
2022/05/11 04:46:21;;;;;;;3.00;2.73;;;14.90;95.20;;;;;;5034646;28;20622;-86
2022/05/11 04:48:48;;;;;;;2.50;2.30;;;14.80;95.30;;;;;;5025904;28;20630;-85
2022/05/11 04:51:15;;;;;;;2.37;2.20;;;15.00;95.30;;;;;;5028462;28;20674;-85
2022/05/11 04:53:42;;;;;;;3.30;3.00;;;15.00;95.30;;;;;;5030195;28;20618;-84
2022/05/11 04:56:09;;;;;;;2.93;2.70;;;15.00;95.00;;;;;;5026256;28;20690;-86
2022/05/11 04:58:36;;;;;;;2.80;2.43;;;15.10;94.80;;;;;;5029215;28;20684;-85
2022/05/11 05:01:02;;;;;;;2.90;2.70;;;15.10;94.80;;;;;;5029292;28;20642;-85
2022/05/11 05:03:31;;;;;;;6.50;2.20;;;15.10;94.80;;;;;;5033491;28;20777;-86
2022/05/11 05:05:57;;;;;;;3.23;2.90;;;15.20;94.80;;;;;;5034682;28;20654;-86
2022/05/11 05:08:24;;;;;;;3.40;3.10;;;15.20;94.30;;;;;;5031675;28;20652;-85
2022/05/11 05:10:51;;;;;;;4.50;3.17;;;15.20;95.00;;;;;;5035487;28;20711;-84
2022/05/11 05:13:18;;;;;;;2.23;1.93;;;15.40;94.90;;;;;;5032475;28;20696;-86
2022/05/11 05:15:45;;;;;;;3.13;2.50;;;15.30;94.50;;;;;;5032498;28;20761;-85
2022/05/11 05:18:12;;;;;;;2.53;2.20;;;15.40;94.40;;;;;;5027806;28;20749;-85
2022/05/11 05:20:40;;;;;;;3.00;2.67;;;15.40;94.30;;;;;;5026665;28;21411;-85
2022/05/11 05:23:08;;;;;;;1.93;1.83;;;15.40;94.30;;;;;;5033153;28;21220;-84
2022/05/11 05:25:35;;;;;;;1.67;1.57;;;15.50;94.20;;;;;;5032350;28;20673;-85
2022/05/11 05:33:31;;;;;;;4.23;2.00;;;15.70;94.40;;;;;;5035775;28;20623;-85
2022/05/11 05:36:00;;;;;;;3.87;2.70;;;15.80;94.20;;;;;;5029278;28;20694;-86
2022/05/11 05:38:27;;;;;;;4.20;3.20;;;15.90;93.70;;;;;;5034451;28;20622;-85
2022/05/11 05:40:55;;;;;;;2.50;2.20;;;16.00;93.80;;;;;;5036760;28;21114;-85
2022/05/11 05:43:22;;;;;;;3.20;2.90;;;16.10;93.80;;;;;;5033964;28;20642;-86
2022/05/11 05:45:49;;;;;;;2.47;2.03;;;16.20;93.70;;;;;;5032911;28;20641;-86
2022/05/11 05:48:17;;;;;;;2.77;2.57;;;16.30;93.70;;;;;;5034820;28;20650;-85
2022/05/11 05:50:43;;;;;;;2.60;2.40;;;16.50;93.50;;;;;;5031883;28;20618;-85
2022/05/11 05:53:14;;;;;;;2.90;2.70;;;16.60;93.50;;;;;;5030972;28;21396;-85
2022/05/11 05:55:41;;;;;;;3.00;2.33;;;16.70;93.30;;;;;;5034311;28;20615;-85
2022/05/11 05:58:08;;;;;;;2.90;2.60;;;16.80;93.20;;;;;;5035123;28;20752;-85
2022/05/11 06:00:35;;;;;;;2.77;2.57;;;16.90;93.20;;;;;;5039531;28;20655;-85
2022/05/11 06:03:01;;;;;;;3.43;2.40;;;17.00;92.90;;;;;;5038539;28;21021;-86
2022/05/11 06:05:28;;;;;;;2.97;2.43;;;17.10;92.70;;;;;;5033819;28;20801;-86
2022/05/11 06:07:56;;;;;;;3.33;2.53;;;17.30;92.40;;;;;;5037465;28;20721;-86
2022/05/11 06:10:25;;;;;;;2.77;2.50;;;17.40;92.40;;;;;;5040114;28;20729;-85
2022/05/11 06:12:53;;;;;;;3.33;2.30;;;17.40;92.30;;;;;;5040931;28;20633;-85
2022/05/11 06:15:20;;;;;;;2.70;2.37;;;17.50;91.70;;;;;;5032667;28;20619;-84
2022/05/11 06:17:47;;;;;;;3.10;2.27;;;17.60;92.00;;;;;;5033257;28;20731;-85
2022/05/11 06:20:14;;;;;;;2.30;2.03;;;17.80;91.50;;;;;;5035011;28;20646;-86
2022/05/11 06:22:41;;;;;;;2.67;2.07;;;17.90;91.50;;;;;;5036117;28;21166;-85
2022/05/11 06:25:09;;;;;;;4.30;2.13;;;18.00;90.90;;;;;;5030526;28;20625;-84
2022/05/11 06:27:37;;;;;;;2.10;1.90;;;18.10;90.70;;;;;;5031930;28;20639;-86
2022/05/11 06:30:05;;;;;;;1.40;1.30;;;18.20;90.70;;;;;;5035767;28;20712;-87
2022/05/11 06:32:33;;;;;;;1.80;1.70;;;18.20;90.30;;;;;;5033267;28;20619;-85
2022/05/11 06:35:00;;;;;;;2.33;2.20;;;18.30;90.30;;;;;;5030376;28;20623;-86
2022/05/11 06:37:27;;;;;;;3.17;1.90;;;18.20;90.20;;;;;;5030121;28;20666;-86
2022/05/11 06:39:54;;;;;;;2.67;2.30;;;18.30;90.00;;;;;;5032207;28;20725;-86
2022/05/11 06:42:21;;;;;;;2.30;2.10;;;18.40;90.10;;;;;;5030836;28;20627;-85
2022/05/11 06:44:50;;;;;;;2.37;2.03;;;18.50;90.50;;;;;;5027505;28;20639;-86
2022/05/11 06:47:17;;;;;;;1.77;1.67;;;18.60;90.00;;;;;;5029799;28;20673;-86
2022/05/11 06:49:44;;;;;;;2.60;2.33;;;18.60;90.00;;;;;;5029309;28;20622;-86
2022/05/11 06:52:11;;;;;;;2.23;2.03;;;18.80;90.20;;;;;;5034748;28;21177;-86
2022/05/11 07:00:09;;;;;;;2.20;2.00;;;18.90;89.60;;;;;;5032663;28;20691;-86
2022/05/11 07:02:37;;;;;;;2.37;2.00;;;19.00;87.90;;;;;;5034668;28;20676;-86
2022/05/11 07:05:06;;;;;;;2.23;1.80;;;19.10;88.00;;;;;;5030242;28;21264;-86
2022/05/11 07:07:32;;;;;;;2.10;1.90;;;19.20;86.40;;;;;;5029119;28;20691;-86
2022/05/11 07:09:59;;;;;;;3.63;2.03;;;19.30;87.00;;;;;;5031988;28;21039;-87
2022/05/11 07:12:32;;;;;;;2.77;2.30;;;19.40;86.70;;;;;;5034326;28;20669;-86
2022/05/11 07:15:00;;;;;;;1.87;1.60;;;19.60;86.60;;;;;;5032157;28;20619;-86
2022/05/11 07:17:31;;;;;;;2.70;1.63;;;19.70;85.00;;;;;;5028860;28;20671;-87
2022/05/11 07:19:59;;;;;;;2.23;1.73;;;19.80;85.10;;;;;;5037248;28;20670;-86
2022/05/11 07:22:27;;;;;;;2.33;2.13;;;19.90;84.50;;;;;;5033479;28;20627;-86
2022/05/11 07:24:54;;;;;;;1.50;1.33;;;20.10;84.70;;;;;;5033990;28;20714;-86
2022/05/11 07:27:22;;;;;;;2.37;2.13;;;20.30;83.80;;;;;;5033485;28;20654;-86
2022/05/11 07:29:49;;;;;;;2.60;2.27;;;20.30;83.40;;;;;;5030875;28;20653;-84
2022/05/11 07:32:16;;;;;;;2.07;1.60;;;20.50;83.20;;;;;;5033895;28;20651;-86
2022/05/11 07:34:45;;;;;;;2.97;2.33;;;20.50;83.00;;;;;;5031044;28;20654;-86
2022/05/11 07:37:11;;;;;;;3.00;2.00;;;20.70;82.60;;;;;;5031968;28;20690;-86
2022/05/11 07:39:39;;;;;;;2.33;2.13;;;20.70;81.80;;;;;;5036140;28;20716;-86
2022/05/11 07:42:06;;;;;;;2.20;2.00;;;20.90;82.10;;;;;;5031623;28;20628;-86
2022/05/11 07:44:33;;;;;;;2.93;2.47;;;21.10;79.00;;;;;;5035583;28;20722;-86
2022/05/11 07:47:00;;;;;;;2.13;1.93;;;21.10;80.00;;;;;;5029002;28;21177;-85
2022/05/11 07:49:27;;;;;;;2.33;2.03;;;21.30;80.50;;;;;;5031635;28;21299;-86
2022/05/11 07:51:56;;;;;;;1.97;1.77;;;21.30;79.10;;;;;;5035563;28;20643;-86
2022/05/11 07:54:23;;;;;;;2.67;1.70;;;21.30;79.80;;;;;;5032549;28;20667;-85
2022/05/11 08:02:22;;;;;;;1.57;1.47;;;21.50;77.10;;;;;;5034724;28;20622;-86
2022/05/11 08:04:49;;;;;;;2.37;2.03;;;21.70;78.30;;;;;;5034184;28;20630;-85
2022/05/11 08:07:17;;;;;;;2.63;2.10;;;21.90;77.60;;;;;;5036608;28;20700;-86
2022/05/11 08:09:44;;;;;;;1.77;1.67;;;22.00;75.60;;;;;;5030789;28;20660;-86
2022/05/11 08:12:11;;;;;;;2.77;1.93;;;22.10;77.30;;;;;;5029296;28;20677;-86
2022/05/11 08:14:38;;;;;;;1.80;1.70;;;22.10;75.50;;;;;;5037251;28;21298;-86
2022/05/11 08:17:05;;;;;;;2.67;2.10;;;22.20;74.70;;;;;;5032724;28;21247;-85
2022/05/11 08:19:32;;;;;;;4.43;2.30;;;22.40;75.30;;;;;;5037071;28;20714;-86
2022/05/11 08:21:59;;;;;;;2.00;1.80;;;22.50;74.50;;;;;;5034487;28;20623;-86
2022/05/11 08:24:27;;;;;;;1.97;1.77;;;22.60;70.80;;;;;;5034181;28;20600;-85
2022/05/11 08:26:54;;;;;;;3.17;2.10;;;22.60;72.50;;;;;;5028022;28;20651;-86
2022/05/11 08:34:51;;;;;;;2.40;2.20;;;22.90;71.70;;;;;;5034493;28;20612;-85
2022/05/11 08:37:18;;;;;;;1.87;1.77;;;23.00;70.30;;;;;;5031748;28;21314;-87
2022/05/11 08:39:49;;;;;;;1.90;1.80;;;23.00;69.50;;;;;;5027984;28;21113;-87
2022/05/11 08:42:17;;;;;;;1.97;1.87;;;23.20;70.40;;;;;;5033715;28;20614;-86
2022/05/11 08:44:47;;;;;;;1.73;1.60;;;23.30;70.10;;;;;;5033957;28;20726;-85
2022/05/11 08:47:28;;;;;;;1.87;1.77;;;23.30;69.10;;;;;;5028376;28;20631;-85
2022/05/11 08:50:04;;;;;;;2.57;2.10;;;23.30;66.90;;;;;;5030168;28;20985;-85
2022/05/11 08:52:40;;;;;;;2.30;2.03;;;23.50;66.80;;;;;;5032641;28;20632;-87
2022/05/11 08:55:12;;;;;;;1.80;1.70;;;23.50;68.30;;;;;;5035109;28;20625;-86
2022/05/11 08:57:41;;;;;;;2.07;1.90;;;23.70;66.80;;;;;;5029800;28;20762;-88
2022/05/11 09:00:12;;;;;;;2.80;2.50;;;23.90;65.80;;;;;;5032746;28;22247;-87
2022/05/11 09:02:48;;;;;;;2.60;2.23;;;24.10;66.30;;;;;;5033420;28;20721;-86
2022/05/11 09:05:17;;;;;;;2.63;2.03;;;24.10;66.10;;;;;;5031240;28;20626;-85
2022/05/11 09:07:47;;;;;;;1.90;1.67;;;24.00;66.70;;;;;;5035453;28;20629;-85
2022/05/11 09:10:23;;;;;;;1.53;1.40;;;24.00;65.20;;;;;;5031517;28;20630;-85
2022/05/11 09:12:54;;;;;;;2.43;2.23;;;24.10;67.20;;;;;;5036591;28;20646;-86
2022/05/11 09:15:21;;;;;;;2.30;2.10;;;24.20;67.30;;;;;;5031909;28;20869;-85
2022/05/11 09:17:49;;;;;;;2.37;2.17;;;24.40;68.50;;;;;;5028784;28;21350;-87
2022/05/11 09:20:19;;;;;;;2.20;2.03;;;24.40;66.60;;;;;;5033032;28;21174;-86
2022/05/11 09:22:59;;;;;;;2.73;1.83;;;24.40;67.50;;;;;;5032533;28;21061;-85
2022/05/11 09:25:31;;;;;;;1.97;1.87;;;24.60;64.80;;;;;;5030252;28;22548;-85
2022/05/11 09:28:14;;;;;;;3.03;2.40;;;24.50;65.70;;;;;;5031753;28;21192;-85
2022/05/11 09:30:57;;;;;;;2.53;2.17;;;24.60;64.40;;;;;;5033059;28;20645;-86
2022/05/11 09:33:28;;;;;;;3.70;2.10;;;24.80;64.40;;;;;;5029234;28;21082;-84
2022/05/11 09:35:55;;;;;;;2.23;2.13;;;24.70;63.00;;;;;;5030558;28;20629;-84
2022/05/11 09:38:46;;;;;;;2.00;1.90;;;24.80;63.00;;;;;;5033599;28;20677;-85
2022/05/11 09:41:22;;;;;;;5.63;1.93;;;24.80;64.00;;;;;;5032129;28;21120;-86
2022/05/11 09:43:52;;;;;;;2.80;2.13;;;25.00;62.60;;;;;;5027243;28;20660;-85
2022/05/11 09:46:28;;;;;;;2.00;1.87;;;25.10;62.00;;;;;;5031610;28;20638;-84
2022/05/11 09:49:01;;;;;;;2.73;2.53;;;25.10;61.80;;;;;;5034767;28;20659;-84
2022/05/11 09:51:35;;;;;;;3.03;2.60;;;25.10;63.20;;;;;;5033260;28;20630;-86
2022/05/11 09:54:17;;;;;;;2.77;2.47;;;25.20;63.20;;;;;;5027164;28;20677;-87
2022/05/11 09:56:56;;;;;;;2.87;2.20;;;25.30;63.50;;;;;;5026580;28;20681;-86
2022/05/11 09:59:26;;;;;;;2.40;2.27;;;25.40;61.60;;;;;;5031860;28;21211;-84
2022/05/11 10:02:01;;;;;;;2.03;1.83;;;25.60;63.30;;;;;;5031243;28;20718;-84
2022/05/11 10:04:35;;;;;;;2.27;1.93;;;25.50;61.40;;;;;;5025917;28;20633;-86
2022/05/11 10:07:04;;;;;;;2.87;2.67;;;25.70;61.70;;;;;;5038375;28;20622;-84
2022/05/11 10:09:35;;;;;;;2.90;2.30;;;25.70;61.60;;;;;;5027747;28;20740;-86
2022/05/11 10:12:07;;;;;;;2.43;2.23;;;25.90;61.70;;;;;;5046851;28;20737;-85
2022/05/11 10:22:59;;;;;;;2.60;2.40;;;26.50;58.80;;;;;;5030487;28;20980;-86
2022/05/11 10:25:30;;;;;;;2.37;2.17;;;26.60;58.40;;;;;;5031716;28;20622;-85
2022/05/11 10:28:07;;;;;;;2.43;2.30;;;26.70;57.50;;;;;;5029391;28;20642;-84
2022/05/11 10:30:38;;;;;;;3.20;2.27;;;26.70;57.50;;;;;;5045320;28;20696;-86
2022/05/11 10:33:47;;;;;;;2.57;2.33;;;26.70;57.50;;;;;;5048704;28;20749;-86
2022/05/11 10:36:21;;;;;;;2.67;1.97;;;26.90;56.50;;;;;;5026278;28;20618;-85
2022/05/11 10:39:03;;;;;;;2.00;1.90;;;26.90;55.60;;;;;;5031247;28;20802;-86
2022/05/11 10:41:36;;;;;;;1.90;1.80;;;27.00;54.70;;;;;;5030941;28;21162;-85
2022/05/11 10:44:14;;;;;;;2.20;2.00;;;27.10;55.40;;;;;;5029819;28;20629;-85
2022/05/11 10:46:52;;;;;;;1.90;1.70;;;27.30;55.80;;;;;;5030281;28;20623;-85
2022/05/11 10:49:38;;;;;;;2.40;2.30;;;27.50;55.80;;;;;;5030781;28;20607;-85
2022/05/11 10:52:29;;;;;;;1.90;1.80;;;27.30;55.30;;;;;;5030069;28;20728;-84
2022/05/11 10:55:10;;;;;;;1.80;1.70;;;27.20;54.40;;;;;;5028990;28;20612;-84
2022/05/11 10:57:48;;;;;;;2.13;1.93;;;27.40;54.80;;;;;;5030346;28;20654;-86
2022/05/11 11:00:18;;;;;;;1.83;1.73;;;27.50;54.70;;;;;;5030290;28;21085;-85
2022/05/11 11:03:11;;;;;;;2.13;1.97;;;27.40;55.20;;;;;;5030430;28;20623;-85
2022/05/11 11:07:10;;;;;;;2.50;2.30;;;27.80;55.30;;;;;;5029683;28;21251;-84
2022/05/11 11:08:42;;;;;;;1.70;1.60;;;28.00;53.20;;;;;;5029943;28;20641;-85
2022/05/11 11:11:18;;;;;;;2.10;1.87;;;28.50;53.00;;;;;;5030706;28;20626;-83
2022/05/11 11:13:51;;;;;;;2.40;2.10;;;28.80;52.60;;;;;;5029583;28;20622;-85
2022/05/11 11:16:22;;;;;;;1.80;1.70;;;28.90;51.40;;;;;;5029886;28;20683;-85
2022/05/11 11:18:50;;;;;;;2.50;2.30;;;28.90;50.90;;;;;;5030130;28;20690;-86
2022/05/11 11:21:19;;;;;;;1.50;1.40;;;28.80;51.50;;;;;;5029739;28;20961;-84
2022/05/11 11:23:47;;;;;;;2.10;2.00;;;28.90;51.10;;;;;;5028841;28;20994;-85
2022/05/11 11:26:47;;;;;;;2.40;2.20;;;29.50;51.60;;;;;;5046572;28;20710;-86
2022/05/11 11:29:22;;;;;;;2.53;2.33;;;29.10;51.00;;;;;;5027492;28;20685;-85
2022/05/11 11:32:16;;;;;;;3.23;2.40;;;29.50;52.50;;;;;;5048557;28;20613;-85
2022/05/11 11:34:49;;;;;;;2.43;2.20;;;29.60;50.00;;;;;;5045812;28;20627;-85
2022/05/11 11:37:41;;;;;;;2.53;2.33;;;29.80;50.00;;;;;;5040805;28;20714;-86
2022/05/11 11:40:23;;;;;;;2.27;2.07;;;30.30;48.80;;;;;;5007963;28;20635;-86
2022/05/11 11:42:51;;;;;;;2.33;2.13;;;30.20;48.20;;;;;;5032568;28;20722;-85
2022/05/11 11:46:04;;;;;;;1.57;1.47;;;30.30;47.30;;;;;;5035912;28;20612;-85
2022/05/11 11:48:38;;;;;;;1.73;1.63;;;30.90;47.90;;;;;;5035649;28;20620;-87
2022/05/11 11:51:11;;;;;;;1.80;1.70;;;31.20;46.70;;;;;;5030459;28;20632;-86
2022/05/11 11:53:54;;;;;;;2.57;2.37;;;31.20;44.70;;;;;;5028847;28;20745;-87
2022/05/11 11:56:46;;;;;;;2.37;1.77;;;32.20;47.70;;;;;;5037069;28;20614;-86
2022/05/11 11:59:33;;;;;;;1.93;1.83;;;31.70;46.10;;;;;;5028419;28;20667;-86
2022/05/11 12:02:11;;;;;;;1.97;1.87;;;32.00;44.90;;;;;;5035006;28;20721;-86
2022/05/11 12:04:42;;;;;;;2.00;1.90;;;33.40;43.70;;;;;;5036810;28;20626;-86
2022/05/11 12:15:35;;;;;;;1.80;1.70;;;35.90;40.50;;;;;;5029269;28;21192;-88
2022/05/11 12:18:03;;;;;;;1.83;1.73;;;36.70;39.10;;;;;;5033663;28;21065;-88
2022/05/11 12:20:45;;;;;;;2.00;1.90;;;36.80;38.70;;;;;;5031575;28;21032;-88
2022/05/11 12:23:20;;;;;;;2.03;1.93;;;37.30;35.70;;;;;;5030510;28;20227;-85
2022/05/11 12:25:52;;;;;;;1.77;1.67;;;37.00;35.60;;;;;;5027611;28;20207;-84
2022/05/11 12:28:22;;;;;;;1.73;1.63;;;36.70;34.40;;;;;;5032391;28;20230;-86
2022/05/11 12:30:49;;;;;;;2.30;2.10;;;37.00;35.10;;;;;;5031419;28;20723;-85
2022/05/11 12:33:22;;;;;;;1.60;1.50;;;37.30;33.90;;;;;;5034785;28;20200;-85
2022/05/11 12:35:52;;;;;;;1.80;1.70;;;37.60;34.60;;;;;;5027219;28;20281;-85
2022/05/11 12:38:33;;;;;;;2.63;2.07;;;37.10;33.30;;;;;;5028716;28;20263;-85
2022/05/11 12:41:08;;;;;;;2.13;2.03;;;37.30;35.10;;;;;;5031261;28;20195;-84
2022/05/11 12:43:37;;;;;;;1.70;1.60;;;37.70;33.40;;;;;;5031066;28;20195;-85
2022/05/11 12:46:07;;;;;;;1.50;1.40;;;37.80;32.70;;;;;;5028071;28;20323;-86
2022/05/11 12:48:37;;;;;;;1.57;1.47;;;38.20;34.30;;;;;;5032988;28;20215;-85
2022/05/11 12:51:09;;;;;;;1.60;1.50;;;37.90;32.50;;;;;;5034150;28;20226;-85
2022/05/11 12:53:38;;;;;;;1.80;1.70;;;38.40;32.40;;;;;;5029855;28;20191;-86
2022/05/11 12:56:12;;;;;;;1.53;1.43;;;38.90;32.20;;;;;;5027954;28;20662;-85
2022/05/11 12:58:44;;;;;;;1.90;1.80;;;38.80;32.20;;;;;;5027453;28;20302;-85
2022/05/11 13:01:16;;;;;;;1.67;1.58;;;39.00;31.30;;;;;;5034517;28;20672;-85
2022/05/11 13:03:44;;;;;;;1.63;1.52;;;39.20;31.00;;;;;;5035572;28;20203;-85
2022/05/11 13:06:27;;;;;;;1.92;1.70;;;39.10;32.00;;;;;;5032271;28;20219;-86
2022/05/11 13:08:57;;;;;;;1.67;1.57;;;38.00;30.40;;;;;;5030213;28;20988;-84
2022/05/11 13:11:27;;;;;;;1.83;1.73;;;38.00;30.00;;;;;;5026919;28;20254;-85
2022/05/11 13:13:57;;;;;;;1.80;1.70;;;37.50;31.30;;;;;;5031184;28;20227;-85
2022/05/11 13:16:28;;;;;;;1.57;1.47;;;37.80;31.60;;;;;;5028951;28;20192;-84
2022/05/11 13:19:17;;;;;;;1.97;1.87;;;37.80;31.80;;;;;;5026195;28;20651;-86
2022/05/11 13:21:47;;;;;;;2.00;1.90;;;38.40;30.30;;;;;;5030522;28;20274;-84
2022/05/11 13:24:14;;;;;;;2.03;1.93;;;38.30;30.90;;;;;;5033153;28;20645;-86
2022/05/11 13:26:43;;;;;;;1.70;1.60;;;38.50;30.90;;;;;;5027513;28;20219;-86
2022/05/11 13:29:22;;;;;;;1.90;1.80;;;38.90;30.60;;;;;;5035849;28;20874;-85
2022/05/11 13:32:04;;;;;;;1.50;1.40;;;38.00;29.40;;;;;;5026382;28;20864;-86
2022/05/11 13:34:36;;;;;;;1.60;1.50;;;37.80;31.30;;;;;;5035185;28;20661;-86
2022/05/11 13:37:05;;;;;;;2.07;1.87;;;38.70;30.80;;;;;;5033651;28;20622;-85
2022/05/11 13:39:36;;;;;;;1.70;1.60;;;39.00;31.10;;;;;;5025909;28;20302;-85
2022/05/11 13:42:12;;;;;;;1.37;1.20;;;38.20;29.20;;;;;;5035288;28;20195;-85
2022/05/11 13:44:45;;;;;;;1.60;1.50;;;37.60;30.10;;;;;;5031800;28;20292;-84
2022/05/11 13:50:16;;;;;;;1.60;1.50;;;38.60;29.80;;;;;;5035942;28;20267;-87
2022/05/11 13:52:53;;;;;;;1.63;1.53;;;38.70;30.10;;;;;;5036957;28;20192;-86